createdAt,value
2023-04-11T00:03:53.102Z,4.53
2023-04-11T00:07:55.945Z,4.57
2023-04-11T00:11:58.933Z,4.60
2023-04-11T00:16:03.288Z,4.13
2023-04-11T00:20:11.036Z,4.30
2023-04-11T00:24:13.743Z,4.20
2023-04-11T00:28:16.443Z,4.00
2023-04-11T00:32:19.379Z,3.93
2023-04-11T00:36:23.536Z,3.80
2023-04-11T00:40:26.414Z,3.73
2023-04-11T00:44:29.521Z,3.83
2023-04-11T00:48:32.616Z,4.17
2023-04-11T00:52:37.954Z,3.93
2023-04-11T00:56:40.681Z,4.17
2023-04-11T01:00:44.607Z,4.07
2023-04-11T01:04:47.443Z,4.00
2023-04-11T01:08:51.550Z,4.40
2023-04-11T01:12:54.374Z,4.33
2023-04-11T01:16:57.440Z,4.17
2023-04-11T01:21:00.525Z,4.00
2023-04-11T01:25:04.988Z,4.80
2023-04-11T01:29:07.738Z,4.60
2023-04-11T01:33:11.746Z,4.67
2023-04-11T01:37:14.538Z,5.07
2023-04-11T01:41:19.005Z,5.53
2023-04-11T01:45:22.067Z,5.47
2023-04-11T01:49:25.807Z,5.13
2023-04-11T01:53:29.126Z,5.97
2023-04-11T01:57:33.416Z,5.73
2023-04-11T02:01:36.792Z,5.87
2023-04-11T02:05:39.658Z,6.10
2023-04-11T02:09:42.573Z,5.30
2023-04-11T02:13:47.069Z,6.10
2023-04-11T02:17:49.797Z,5.93
2023-04-11T02:21:52.777Z,5.90
2023-04-11T02:25:55.617Z,5.60
2023-04-11T02:30:00.206Z,5.80
2023-04-11T02:34:02.979Z,6.30
2023-04-11T02:38:05.934Z,6.20
2023-04-11T02:42:08.588Z,5.87
2023-04-11T02:46:13.483Z,6.00
2023-04-11T02:50:17.683Z,6.40
2023-04-11T02:54:20.377Z,6.00
2023-04-11T02:58:25.779Z,5.87
2023-04-11T03:02:30.328Z,5.47
2023-04-11T03:06:33.302Z,5.97
2023-04-11T03:10:36.111Z,6.00
2023-04-11T03:14:38.847Z,6.20
2023-04-11T03:18:42.948Z,6.53
2023-04-11T03:22:45.937Z,6.20
2023-04-11T03:26:48.639Z,6.03
2023-04-11T03:30:51.605Z,5.40
2023-04-11T03:34:55.647Z,5.27
2023-04-11T03:38:58.497Z,5.90
2023-04-11T03:43:04.323Z,5.40
2023-04-11T03:47:07.455Z,6.03
2023-04-11T03:51:11.751Z,5.43
2023-04-11T03:55:14.579Z,4.90
2023-04-11T03:59:17.257Z,4.33
2023-04-11T04:03:20.092Z,4.37
2023-04-11T04:07:25.001Z,4.50
2023-04-11T04:11:27.694Z,4.30
2023-04-11T04:15:30.700Z,4.83
2023-04-11T04:19:33.587Z,3.97
2023-04-11T04:23:39.196Z,3.50
2023-04-11T04:27:44.383Z,3.43
2023-04-11T04:31:50.569Z,2.83
2023-04-11T04:36:00.035Z,3.37
2023-04-11T04:40:08.312Z,2.90
2023-04-11T04:44:11.301Z,2.80
2023-04-11T04:48:14.554Z,2.10
2023-04-11T04:52:17.509Z,2.43
2023-04-11T04:56:21.801Z,1.90
2023-04-11T05:00:24.705Z,2.40
2023-04-11T05:04:28.116Z,1.73
2023-04-11T05:08:30.966Z,1.20
2023-04-11T05:12:35.141Z,0.90
2023-04-11T05:16:38.377Z,1.10
2023-04-11T05:20:41.666Z,0.97
2023-04-11T05:24:44.413Z,0.70
2023-04-11T05:28:48.520Z,0.70
2023-04-11T05:32:51.502Z,0.70
2023-04-11T05:36:54.294Z,0.70
2023-04-11T05:40:57.002Z,0.70
2023-04-11T05:45:01.363Z,0.60
2023-04-11T05:49:04.313Z,0.60
2023-04-11T05:53:07.138Z,0.50
2023-04-11T05:57:09.898Z,0.50
2023-04-11T06:01:18.825Z,0.47
2023-04-11T06:05:22.434Z,0.60
2023-04-11T06:09:25.384Z,0.50
2023-04-11T06:13:28.367Z,0.50
2023-04-11T06:17:32.765Z,0.40
2023-04-11T06:21:35.551Z,0.50
2023-04-11T06:25:38.303Z,0.80
2023-04-11T06:29:43.499Z,0.50
2023-04-11T06:33:48.016Z,0.50
2023-04-11T06:37:50.779Z,0.57
2023-04-11T06:41:53.521Z,0.73
2023-04-11T06:45:56.520Z,0.50
2023-04-11T06:50:00.995Z,0.87
2023-04-11T06:54:04.326Z,0.60
2023-04-11T06:58:07.090Z,0.67
2023-04-11T07:02:09.927Z,0.50
2023-04-11T07:06:14.214Z,0.50
2023-04-11T07:10:17.297Z,0.70
2023-04-11T07:14:20.403Z,0.60
2023-04-11T07:18:23.732Z,0.60
2023-04-11T07:22:29.326Z,0.47
2023-04-11T07:26:32.325Z,0.70
2023-04-11T07:30:36.095Z,0.60
2023-04-11T07:34:38.833Z,0.70
2023-04-11T07:38:43.188Z,0.73
2023-04-11T07:42:46.331Z,0.63
2023-04-11T07:46:49.088Z,0.70
2023-04-11T07:50:51.843Z,0.60
2023-04-11T07:54:56.231Z,0.60
2023-04-11T07:58:59.087Z,0.73
2023-04-11T08:03:04.692Z,0.70
2023-04-11T08:07:07.909Z,0.80
2023-04-11T08:11:12.513Z,0.90
2023-04-11T08:15:15.659Z,1.00
2023-04-11T08:19:18.413Z,0.80
2023-04-11T08:23:22.746Z,1.10
2023-04-11T08:27:27.278Z,0.97
2023-04-11T08:31:30.340Z,1.00
2023-04-11T08:35:33.133Z,1.20
2023-04-11T08:39:36.165Z,0.90
2023-04-11T08:43:40.900Z,1.30
2023-04-11T08:47:45.846Z,1.00
2023-04-11T08:51:49.540Z,1.30
2023-04-11T08:55:52.528Z,1.20
2023-04-11T09:00:00.125Z,1.40
2023-04-11T09:04:05.256Z,1.60
2023-04-11T09:08:09.450Z,1.10
2023-04-11T09:12:13.017Z,1.40
2023-04-11T09:16:17.210Z,1.57
2023-04-11T09:20:21.361Z,1.30
2023-04-11T09:24:25.941Z,1.33
2023-04-11T09:28:28.731Z,1.43
2023-04-11T09:32:34.476Z,1.30
2023-04-11T09:36:37.359Z,1.27
2023-04-11T09:40:43.794Z,1.00
2023-04-11T09:44:46.567Z,1.37
2023-04-11T09:48:51.678Z,1.30
2023-04-11T09:52:58.425Z,1.07
2023-04-11T09:57:04.622Z,1.40
2023-04-11T10:01:09.016Z,0.93
2023-04-11T10:05:14.176Z,1.03
2023-04-11T10:09:17.098Z,1.00
2023-04-11T10:13:39.700Z,1.00
2023-04-11T10:17:42.511Z,1.10
2023-04-11T10:21:46.763Z,1.40
2023-04-11T10:25:55.157Z,3.13
2023-04-11T10:29:58.145Z,3.43
2023-04-11T10:34:14.306Z,1.33
2023-04-11T10:38:49.428Z,1.10
2023-04-11T10:42:52.519Z,1.20
2023-04-11T10:46:56.239Z,1.00
2023-04-11T10:50:59.061Z,1.10
2023-04-11T10:55:17.102Z,1.10
2023-04-11T10:59:53.119Z,1.20
2023-04-11T11:04:00.192Z,1.43
2023-04-11T11:08:03.180Z,1.10
2023-04-11T11:12:11.089Z,1.43
2023-04-11T11:16:16.070Z,0.90
2023-04-11T11:20:20.174Z,0.70
2023-04-11T11:24:25.894Z,1.13
2023-04-11T11:28:29.995Z,1.10
2023-04-11T11:32:32.931Z,1.00
2023-04-11T11:36:37.845Z,1.40
2023-04-11T11:40:40.780Z,0.80
2023-04-11T11:44:45.007Z,0.90
2023-04-11T11:48:59.911Z,1.00
2023-04-11T11:53:14.279Z,1.30
2023-04-11T11:57:22.871Z,1.03
2023-04-11T12:01:27.406Z,1.03
2023-04-11T12:05:32.498Z,0.90
2023-04-11T12:09:35.373Z,0.73
2023-04-11T12:13:38.191Z,0.80
2023-04-11T12:17:42.355Z,0.70
2023-04-11T12:21:45.088Z,0.70
2023-04-11T12:25:48.652Z,0.70
2023-04-11T12:29:51.409Z,0.80
2023-04-11T12:33:55.714Z,1.00
2023-04-11T12:37:58.626Z,0.97
2023-04-11T12:42:01.374Z,1.07
2023-04-11T12:46:04.286Z,1.03
2023-04-11T12:50:10.574Z,1.30
2023-04-11T12:54:13.308Z,1.00
2023-04-11T12:58:16.608Z,1.00
2023-04-11T13:02:20.281Z,1.30
2023-04-11T13:06:24.646Z,1.20
2023-04-11T13:10:27.415Z,0.97
2023-04-11T13:14:30.672Z,1.00
2023-04-11T13:18:33.406Z,0.93
2023-04-11T13:22:38.312Z,1.00
2023-04-11T13:26:41.450Z,1.10
2023-04-11T13:30:44.238Z,1.00
2023-04-11T13:34:47.309Z,1.10
2023-04-11T13:38:52.403Z,0.90
2023-04-11T13:42:56.037Z,0.70
2023-04-11T13:46:58.796Z,0.83
2023-04-11T13:51:01.891Z,0.77
2023-04-11T13:55:07.114Z,0.70
2023-04-11T13:59:09.979Z,0.80
2023-04-11T14:03:12.902Z,0.60
2023-04-11T14:07:16.135Z,0.80
2023-04-11T14:11:20.517Z,0.80
2023-04-11T14:15:23.630Z,0.80
2023-04-11T14:19:26.848Z,1.00
2023-04-11T14:23:29.913Z,1.00
2023-04-11T14:27:34.351Z,0.80
2023-04-11T14:31:37.249Z,0.83
2023-04-11T14:35:40.422Z,0.83
2023-04-11T14:39:45.482Z,0.97
2023-04-11T14:43:49.911Z,0.97
2023-04-11T14:47:52.787Z,1.13
2023-04-11T14:51:55.605Z,0.97
2023-04-11T14:55:58.425Z,1.00
2023-04-11T15:00:05.440Z,1.10
2023-04-11T15:04:08.336Z,1.00
2023-04-11T15:08:11.209Z,0.87
2023-04-11T15:12:13.959Z,0.77
2023-04-11T15:16:19.378Z,1.10
2023-04-11T15:20:24.333Z,1.10
2023-04-11T15:24:27.337Z,1.00
2023-04-11T15:28:32.892Z,1.00
2023-04-11T15:32:37.961Z,1.00
2023-04-11T15:36:42.480Z,1.13
2023-04-11T15:40:46.423Z,0.90
2023-04-11T15:44:49.252Z,0.83
2023-04-11T15:48:53.865Z,0.90
2023-04-11T15:52:57.851Z,1.30
2023-04-11T15:57:02.405Z,1.10
2023-04-11T16:01:05.475Z,0.80
2023-04-11T16:05:10.576Z,1.03
2023-04-11T16:09:13.921Z,1.00
2023-04-11T16:13:16.700Z,0.77
2023-04-11T16:17:20.532Z,0.93
2023-04-11T16:21:24.926Z,0.90
2023-04-11T16:25:27.856Z,0.80
2023-04-11T16:29:30.742Z,1.10
2023-04-11T16:33:33.515Z,1.00
2023-04-11T16:37:38.302Z,1.10
2023-04-11T16:41:41.147Z,1.20
2023-04-11T16:45:44.652Z,0.90
2023-04-11T16:49:47.471Z,0.80
2023-04-11T16:53:53.291Z,1.40
2023-04-11T16:57:56.107Z,0.97
2023-04-11T17:01:59.136Z,1.03
2023-04-11T17:06:02.315Z,1.00
2023-04-11T17:10:08.233Z,1.43
2023-04-11T17:14:11.238Z,1.90
2023-04-11T17:18:14.988Z,1.37
2023-04-11T17:22:18.050Z,1.20
2023-04-11T17:26:22.126Z,1.60
2023-04-11T17:30:24.929Z,1.47
2023-04-11T17:34:27.927Z,1.50
2023-04-11T17:38:30.807Z,1.50
2023-04-11T17:42:35.242Z,1.37
2023-04-11T17:46:38.396Z,1.33
2023-04-11T17:50:45.924Z,0.97
2023-04-11T17:54:48.959Z,4.80
2023-04-11T17:58:53.074Z,1.20
2023-04-11T18:02:57.740Z,1.10
2023-04-11T18:07:00.754Z,1.47
2023-04-11T18:11:04.246Z,1.50
2023-04-11T18:15:11.854Z,1.40
2023-04-11T18:19:14.754Z,1.33
2023-04-11T18:23:17.496Z,1.40
2023-04-11T18:27:23.712Z,38.40
2023-04-11T18:31:34.224Z,83.13
2023-04-11T18:35:38.593Z,26.47
2023-04-11T18:39:41.398Z,12.73
2023-04-11T18:43:44.229Z,1.67
2023-04-11T18:47:48.846Z,1.80
2023-04-11T18:51:52.814Z,1.30
2023-04-11T18:55:55.573Z,1.77
2023-04-11T19:00:02.259Z,3.20
2023-04-11T19:04:11.042Z,1.67
2023-04-11T19:08:13.963Z,1.60
2023-04-11T19:12:17.499Z,2.80
2023-04-11T19:16:20.996Z,3.93
2023-04-11T19:20:26.590Z,4.47
2023-04-11T19:24:29.735Z,3.00
2023-04-11T19:28:32.457Z,5.80
2023-04-11T19:32:38.747Z,2.60
2023-04-11T19:36:43.253Z,5.03
2023-04-11T19:40:46.566Z,4.83
2023-04-11T19:44:49.439Z,2.33
2023-04-11T19:48:53.416Z,1.60
2023-04-11T19:52:59.519Z,1.77
2023-04-11T19:57:02.431Z,1.70
2023-04-11T20:01:07.243Z,1.30
2023-04-11T20:05:10.739Z,1.20
2023-04-11T20:09:16.085Z,1.20
2023-04-11T20:13:19.138Z,1.40
2023-04-11T20:17:22.237Z,2.37
2023-04-11T20:21:25.746Z,3.40
2023-04-11T20:25:30.643Z,3.50
2023-04-11T20:29:33.949Z,2.70
2023-04-11T20:33:37.416Z,2.20
2023-04-11T20:37:41.504Z,1.90
2023-04-11T20:41:46.662Z,2.07
2023-04-11T20:45:50.621Z,1.80
2023-04-11T20:49:56.016Z,1.70
2023-04-11T20:53:59.146Z,1.70
2023-04-11T20:58:03.866Z,1.60
2023-04-11T21:02:06.856Z,1.43
2023-04-11T21:06:10.406Z,1.40
2023-04-11T21:10:13.254Z,1.60
2023-04-11T21:14:17.653Z,1.47
2023-04-11T21:18:20.599Z,1.50
2023-04-11T21:22:23.416Z,1.60
2023-04-11T21:26:26.142Z,1.83
2023-04-11T21:30:30.657Z,1.60
2023-04-11T21:34:33.371Z,1.50
2023-04-11T21:38:36.733Z,1.30
2023-04-11T21:42:39.469Z,1.40
2023-04-11T21:46:43.601Z,1.60
2023-04-11T21:50:46.493Z,1.80
2023-04-11T21:54:49.227Z,1.60
2023-04-11T21:58:52.166Z,1.67
2023-04-11T22:02:56.583Z,1.90
2023-04-11T22:07:00.466Z,1.67
2023-04-11T22:11:07.566Z,1.80
2023-04-11T22:15:12.587Z,1.80
2023-04-11T22:19:19.062Z,1.90
2023-04-11T22:23:24.932Z,1.70
2023-04-11T22:27:29.498Z,1.80
2023-04-11T22:31:34.339Z,1.80
2023-04-11T22:35:39.584Z,2.03
2023-04-11T22:39:42.733Z,1.73
2023-04-11T22:43:45.600Z,2.00
2023-04-11T22:47:53.935Z,2.97
2023-04-11T22:51:59.455Z,2.30
2023-04-11T22:56:02.979Z,2.40
2023-04-11T23:00:07.754Z,2.20
2023-04-11T23:04:10.496Z,2.03
2023-04-11T23:08:14.994Z,2.57
2023-04-11T23:12:17.746Z,2.57
2023-04-11T23:16:22.073Z,2.33
2023-04-11T23:20:24.856Z,2.20
2023-04-11T23:24:28.996Z,2.67
2023-04-11T23:28:32.400Z,2.27
2023-04-11T23:32:35.771Z,2.50
2023-04-11T23:36:38.798Z,2.67
2023-04-11T23:40:42.838Z,2.50
2023-04-11T23:44:45.843Z,2.90
2023-04-11T23:48:48.602Z,2.70
2023-04-11T23:52:53.679Z,2.53
2023-04-11T23:56:58.418Z,2.63
